KHVR/HVR METAR and TAF weather

Enter ICAO airport designator
Station Type Date Time Source
KHVR METAR 2019/08/18 18:53 UTC NOAA

KHVR 181853Z AUTO 29016G27KT 10SM BKN075 27/06 A2975 RMK AO2 PK WND 26031/1800 SLP063 T02670061


Station Type Date Time Source
KHVR Decoded METAR 2019/08/18 18:53 UTC NOAA

Station name not available
Aug 18, 2019 - 02:53 PM EDT / 2019.08.18 1853 UTC
Wind: from the WNW (290 degrees) at 18 MPH (16 KT) gusting to 31 MPH (27 KT):0
Visibility: 10 mile(s):0
Sky conditions: mostly cloudy
Temperature: 80.1 F (26.7 C)
Dew Point: 43.0 F (6.1 C)
Relative Humidity: 26%
Pressure (altimeter): 29.75 in. Hg (1007 hPa)
ob: KHVR 181853Z AUTO 29016G27KT 10SM BKN075 27/06 A2975 RMK AO2 PK WND 26031/1800 SLP063 T02670061
cycle: 19

Station Type Date Time Source
KHVR TAF 2019/08/18 18:34 UTC NOAA

TAF KHVR 181732Z 1818/1918 23018G24KT P6SM FEW080 FEW180
FM190300 12006KT P6SM SKC
FM191200 23008KT P6SM SKC
FM191700 27014G24KT P6SM SKC

Example: see airport list